Time;durP1;ratioP1;P1;durP2;ratioP2;P2;SDS_P1;SDS_P2;PMS_P1;PMS_P2;Temp;Humidity;BMP_temperature;BMP_pressure;BME280_temperature;BME280_humidity;BME280_pressure;Samples;Min_cycle;Max_cycle;Signal;HPM_P1;HPM_P2
2020/12/11 00:01:38;;;;;;;44.67;13.88;;;;;;;1.05;82.46;100790.88;1725712;82;21853;-66
2020/12/11 00:04:05;;;;;;;34.83;13.98;;;;;;;1.06;82.41;100796.64;1725686;82;21166;-65
2020/12/11 00:06:33;;;;;;;30.95;13.65;;;;;;;1.06;82.45;100790.39;1711005;83;21641;-64
2020/12/11 00:09:00;;;;;;;38.85;13.88;;;;;;;1.08;82.42;100791.98;1725789;82;21139;-66
2020/12/11 00:11:31;;;;;;;36.50;14.13;;;;;;;1.11;82.35;100785.47;1725822;83;21067;-65
2020/12/11 00:13:58;;;;;;;34.50;13.30;;;;;;;1.13;82.26;100783.50;1725641;82;21833;-66
2020/12/11 00:16:26;;;;;;;42.62;13.78;;;;;;;1.15;82.20;100780.18;1725669;83;21841;-67
2020/12/11 00:18:53;;;;;;;32.00;13.25;;;;;;;1.14;82.15;100781.16;1725584;82;21312;-65
2020/12/11 00:21:21;;;;;;;39.38;13.55;;;;;;;1.15;82.14;100776.13;1725769;82;21430;-65
2020/12/11 00:23:52;;;;;;;33.48;13.35;;;;;;;1.14;82.04;100775.27;1725662;82;21027;-65
2020/12/11 00:26:20;;;;;;;34.40;13.32;;;;;;;1.18;81.97;100783.97;1725656;82;21090;-64
2020/12/11 00:28:47;;;;;;;28.57;12.15;;;;;;;1.19;81.89;100775.75;1725785;82;21783;-66
2020/12/11 00:31:15;;;;;;;32.13;12.58;;;;;;;1.19;81.81;100778.94;1725733;82;21315;-65
2020/12/11 00:33:42;;;;;;;31.15;12.85;;;;;;;1.18;81.76;100775.87;1674683;84;21357;-64
2020/12/11 00:36:12;;;;;;;25.37;12.05;;;;;;;1.17;81.74;100768.77;1708237;82;21172;-66
2020/12/11 00:38:39;;;;;;;27.10;11.10;;;;;;;1.20;81.68;100763.11;1708200;83;21354;-64
2020/12/11 00:41:06;;;;;;;26.15;11.35;;;;;;;1.23;81.59;100773.16;1708143;82;21111;-64
2020/12/11 00:43:33;;;;;;;30.20;11.40;;;;;;;1.22;81.48;100767.89;1708209;84;21278;-65
2020/12/11 00:46:01;;;;;;;30.82;12.88;;;;;;;1.22;81.38;100765.19;1708132;82;21843;-65
2020/12/11 00:48:28;;;;;;;26.05;10.05;;;;;;;1.21;81.36;100771.08;1708141;83;21492;-66
2020/12/11 00:50:56;;;;;;;30.77;12.65;;;;;;;1.22;81.30;100769.23;1683520;84;21366;-64
2020/12/11 00:53:24;;;;;;;28.55;11.53;;;;;;;1.22;81.21;100769.23;1708190;82;21099;-66
2020/12/11 00:55:52;;;;;;;29.57;11.68;;;;;;;1.22;81.17;100769.23;1683676;84;21313;-66
2020/12/11 00:58:20;;;;;;;29.30;12.15;;;;;;;1.20;81.20;100774.77;1708192;83;21388;-65
2020/12/11 01:00:48;;;;;;;29.90;12.50;;;;;;;1.21;81.18;100773.78;1708147;82;21083;-64
2020/12/11 01:03:15;;;;;;;26.10;11.18;;;;;;;1.20;81.18;100772.56;1708157;84;21835;-65
2020/12/11 01:05:43;;;;;;;34.92;12.88;;;;;;;1.21;81.15;100767.52;1708160;82;21297;-63
2020/12/11 01:08:10;;;;;;;23.12;10.60;;;;;;;1.26;81.11;100762.59;1708247;84;21106;-65
2020/12/11 01:10:38;;;;;;;26.97;11.22;;;;;;;1.26;81.08;100756.70;1708113;82;21123;-65
2020/12/11 01:13:05;;;;;;;28.05;11.28;;;;;;;1.26;81.04;100758.55;1708347;82;21313;-64
2020/12/11 01:15:33;;;;;;;27.17;10.80;;;;;;;1.25;81.02;100764.93;1708160;82;21059;-64
2020/12/11 01:18:00;;;;;;;29.12;11.78;;;;;;;1.24;81.00;100755.12;1708163;82;21226;-65
2020/12/11 01:20:27;;;;;;;25.27;11.65;;;;;;;1.27;80.97;100760.26;1708271;84;21078;-65
2020/12/11 01:22:55;;;;;;;25.23;10.18;;;;;;;1.28;80.94;100760.13;1708160;82;21098;-64
2020/12/11 01:25:22;;;;;;;27.02;10.98;;;;;;;1.29;80.91;100762.34;1708174;82;21809;-66
2020/12/11 01:27:49;;;;;;;28.95;12.65;;;;;;;1.27;80.88;100754.86;1708235;82;21489;-64
2020/12/11 01:30:17;;;;;;;24.82;10.45;;;;;;;1.27;80.88;100761.61;1708224;82;21075;-65
2020/12/11 01:32:44;;;;;;;29.30;11.75;;;;;;;1.29;80.83;100760.98;1708041;82;21314;-64
2020/12/11 01:35:12;;;;;;;22.93;10.03;;;;;;;1.30;80.75;100752.40;1708189;84;21307;-64
2020/12/11 01:37:41;;;;;;;24.23;10.78;;;;;;;1.32;80.69;100749.11;1708122;82;21095;-65
2020/12/11 01:40:08;;;;;;;28.50;11.43;;;;;;;1.29;80.60;100750.19;1708227;84;21309;-63
2020/12/11 01:42:36;;;;;;;22.40;9.00;;;;;;;1.28;80.62;100751.17;1708131;84;21372;-65
2020/12/11 01:45:04;;;;;;;26.68;11.75;;;;;;;1.29;80.61;100750.19;1708278;82;21287;-63
2020/12/11 01:47:39;;;;;;;24.02;10.55;;;;;;;1.32;80.56;100750.45;1708260;82;21098;-64
2020/12/11 01:50:04;;;;;;;22.37;9.45;;;;;;;1.32;80.45;100741.01;1708116;82;21353;-64
2020/12/11 01:52:31;;;;;;;24.00;9.65;;;;;;;1.31;80.43;100738.80;1708284;84;21193;-63
2020/12/11 01:54:58;;;;;;;21.45;9.85;;;;;;;1.31;80.42;100735.25;1708165;84;21351;-65
2020/12/11 01:57:55;;;;;;;24.70;9.68;;;;;;;1.28;80.42;100735.84;1708261;83;21336;-65
2020/12/11 02:00:22;;;;;;;22.80;9.83;;;;;;;1.31;80.36;100736.10;1708280;82;21106;-63
2020/12/11 02:02:55;;;;;;;24.82;10.15;;;;;;;1.31;80.25;100732.05;1708189;82;21078;-65
2020/12/11 02:05:23;;;;;;;25.37;10.90;;;;;;;1.29;80.19;100732.64;1703982;84;21322;-64
2020/12/11 02:07:50;;;;;;;23.55;10.23;;;;;;;1.29;80.17;100731.30;1708206;84;21901;-66
2020/12/11 02:10:18;;;;;;;22.77;10.53;;;;;;;1.31;80.13;100732.55;1708234;82;21119;-64
2020/12/11 02:12:45;;;;;;;24.00;9.43;;;;;;;1.28;80.10;100724.19;1708369;82;21273;-64
2020/12/11 02:15:13;;;;;;;21.95;8.95;;;;;;;1.27;80.05;100727.38;1708472;82;21348;-64
2020/12/11 02:17:40;;;;;;;25.77;10.35;;;;;;;1.27;79.98;100731.92;1708206;84;21408;-64
2020/12/11 02:20:07;;;;;;;28.12;10.75;;;;;;;1.26;79.98;100730.20;1708266;84;21107;-63
2020/12/11 02:22:35;;;;;;;21.62;8.33;;;;;;;1.24;80.00;100725.43;1708324;82;21301;-64
2020/12/11 02:25:03;;;;;;;25.15;9.55;;;;;;;1.24;80.03;100724.08;1708165;84;21893;-65
2020/12/11 02:27:30;;;;;;;27.30;10.88;;;;;;;1.22;79.94;100735.50;1718655;82;21343;-64
2020/12/11 02:29:58;;;;;;;24.98;9.78;;;;;;;1.22;79.92;100730.10;1722915;82;21322;-63
2020/12/11 02:32:26;;;;;;;22.27;9.50;;;;;;;1.21;79.87;100735.13;1722861;82;21089;-65
2020/12/11 02:34:53;;;;;;;20.55;9.35;;;;;;;1.19;79.86;100737.97;1722790;83;21385;-64
2020/12/11 02:37:21;;;;;;;22.75;9.75;;;;;;;1.16;79.89;100724.73;1723468;82;21403;-64
2020/12/11 02:39:48;;;;;;;26.50;9.65;;;;;;;1.15;79.85;100733.81;1722760;82;21455;-64
2020/12/11 02:42:15;;;;;;;25.82;10.48;;;;;;;1.17;79.88;100738.59;1722802;82;21089;-64
2020/12/11 02:44:43;;;;;;;21.77;9.90;;;;;;;1.16;79.87;100742.77;1722804;82;21318;-63
2020/12/11 02:47:15;;;;;;;23.35;10.18;;;;;;;1.16;79.98;100746.81;1722789;83;21241;-65
2020/12/11 02:49:42;;;;;;;24.57;10.03;;;;;;;1.15;80.00;100747.80;1722854;83;21346;-64
2020/12/11 02:52:09;;;;;;;21.25;8.68;;;;;;;1.15;79.97;100743.75;1722892;83;21065;-64
2020/12/11 02:54:37;;;;;;;22.87;9.70;;;;;;;1.17;79.94;100744.48;1722800;82;21833;-64
2020/12/11 02:57:04;;;;;;;19.55;9.03;;;;;;;1.17;79.85;100753.43;1722633;82;21864;-64
2020/12/11 02:59:32;;;;;;;21.15;10.15;;;;;;;1.15;79.78;100749.15;1722825;83;21244;-64
2020/12/11 03:01:59;;;;;;;21.70;8.73;;;;;;;1.14;79.80;100751.48;1722717;83;21847;-64
2020/12/11 03:04:26;;;;;;;22.40;9.10;;;;;;;1.13;79.76;100753.81;1722825;83;21434;-64
2020/12/11 03:06:54;;;;;;;20.90;9.58;;;;;;;1.12;79.74;100761.05;1722844;83;21360;-66
2020/12/11 03:09:21;;;;;;;21.07;9.33;;;;;;;1.14;79.72;100754.18;1722865;82;21248;-63
2020/12/11 03:11:49;;;;;;;23.35;9.33;;;;;;;1.15;79.71;100754.55;1722736;82;21108;-64
2020/12/11 03:14:16;;;;;;;19.82;9.35;;;;;;;1.15;79.70;100750.00;1722863;82;21244;-65
2020/12/11 03:16:44;;;;;;;18.80;8.30;;;;;;;1.15;79.68;100745.10;1722798;82;21060;-65
2020/12/11 03:19:11;;;;;;;23.30;9.33;;;;;;;1.14;79.66;100746.08;1723069;83;21304;-64
2020/12/11 03:21:39;;;;;;;19.70;9.30;;;;;;;1.14;79.58;100747.44;1722857;82;21207;-66
2020/12/11 03:24:06;;;;;;;22.07;9.80;;;;;;;1.15;79.54;100739.70;1722823;82;21750;-64
2020/12/11 03:26:34;;;;;;;17.62;8.10;;;;;;;1.14;79.56;100742.03;1722746;82;21117;-65
2020/12/11 03:29:02;;;;;;;18.98;8.63;;;;;;;1.14;79.44;100743.39;1722827;82;21618;-65
2020/12/11 03:31:29;;;;;;;26.37;8.15;;;;;;;1.11;79.32;100728.31;1722848;82;21097;-64
2020/12/11 03:33:57;;;;;;;21.17;8.50;;;;;;;1.13;79.29;100732.23;1722801;83;21112;-64
2020/12/11 03:36:24;;;;;;;19.35;8.58;;;;;;;1.11;79.15;100740.45;1722811;83;21283;-64
2020/12/11 03:38:51;;;;;;;21.73;8.43;;;;;;;1.09;79.09;100738.37;1722740;82;21069;-66
2020/12/11 03:41:19;;;;;;;18.85;7.75;;;;;;;1.06;79.03;100743.17;1722956;82;21347;-64
2020/12/11 03:43:46;;;;;;;17.98;8.38;;;;;;;1.02;79.02;100746.63;1722928;82;21295;-65
2020/12/11 03:46:21;;;;;;;21.40;8.88;;;;;;;1.01;78.99;100740.00;1722797;83;21183;-65
2020/12/11 03:48:50;;;;;;;22.70;9.35;;;;;;;1.00;78.99;100742.34;1722636;82;21356;-66
2020/12/11 03:51:19;;;;;;;18.87;7.85;;;;;;;0.98;79.03;100749.20;1723007;83;21880;-65
2020/12/11 03:53:46;;;;;;;20.10;8.13;;;;;;;0.98;79.00;100747.00;1722692;82;21801;-65
2020/12/11 03:56:15;;;;;;;23.95;8.65;;;;;;;0.97;78.95;100746.64;1722831;82;21092;-63
2020/12/11 03:58:43;;;;;;;23.35;9.23;;;;;;;0.95;78.90;100746.77;1722850;82;21821;-64
2020/12/11 04:01:11;;;;;;;21.55;9.48;;;;;;;0.93;78.87;100752.78;1722886;82;21848;-65
2020/12/11 04:03:40;;;;;;;22.20;7.50;;;;;;;0.92;78.92;100751.92;1722990;83;21347;-65
2020/12/11 04:06:08;;;;;;;17.60;7.62;;;;;;;0.95;78.98;100750.81;1722942;83;21366;-65
2020/12/11 04:08:37;;;;;;;23.55;8.38;;;;;;;0.97;78.83;100762.83;1722700;82;21807;-66
2020/12/11 04:11:06;;;;;;;17.07;7.87;;;;;;;0.98;78.75;100757.80;1722812;83;21264;-64
2020/12/11 04:13:33;;;;;;;20.75;8.30;;;;;;;0.96;78.67;100760.62;1723026;83;21088;-65
2020/12/11 04:16:01;;;;;;;25.62;8.20;;;;;;;0.93;78.60;100748.73;1722864;83;21339;-63
2020/12/11 04:18:28;;;;;;;22.62;8.85;;;;;;;0.91;78.58;100754.26;1722871;82;21073;-66
2020/12/11 04:20:58;;;;;;;18.05;8.63;;;;;;;0.91;78.57;100753.41;1722783;82;21093;-64
2020/12/11 04:23:26;;;;;;;21.52;8.93;;;;;;;0.91;78.54;100753.41;1722792;83;21661;-63
2020/12/11 04:25:54;;;;;;;17.35;7.72;;;;;;;0.91;78.47;100760.14;1722946;82;21368;-65
2020/12/11 04:28:22;;;;;;;17.75;7.40;;;;;;;0.90;78.41;100755.73;1722875;82;21132;-64
2020/12/11 04:30:50;;;;;;;19.20;7.97;;;;;;;0.89;78.27;100758.07;1722856;82;21691;-65
2020/12/11 04:33:17;;;;;;;23.40;8.90;;;;;;;0.88;78.27;100753.16;1722957;82;21894;-65
2020/12/11 04:35:45;;;;;;;18.60;7.37;;;;;;;0.88;78.19;100753.66;1722723;82;21813;-64
2020/12/11 04:38:12;;;;;;;23.12;8.55;;;;;;;0.87;78.07;100749.25;1722760;83;21362;-64
2020/12/11 04:40:39;;;;;;;23.95;8.15;;;;;;;0.84;77.97;100761.14;1722930;83;21259;-64
2020/12/11 04:43:09;;;;;;;21.65;7.85;;;;;;;0.83;78.00;100758.08;1722856;82;21103;-66
2020/12/11 04:45:38;;;;;;;25.02;8.65;;;;;;;0.82;77.92;100756.37;1721547;82;21040;-65
2020/12/11 04:48:09;;;;;;;24.35;9.35;;;;;;;0.80;77.93;100761.03;1723152;82;21278;-66
2020/12/11 04:50:37;;;;;;;25.00;8.83;;;;;;;0.79;77.96;100762.02;1681918;84;21370;-66
2020/12/11 04:53:04;;;;;;;19.90;7.10;;;;;;;0.81;78.00;100763.23;1682007;85;21110;-66
2020/12/11 04:55:35;;;;;;;18.90;6.90;;;;;;;0.83;77.94;100759.92;1681970;84;21085;-64
2020/12/11 04:58:04;;;;;;;23.00;8.38;;;;;;;0.82;77.86;100770.34;1681947;84;21387;-64
2020/12/11 05:00:32;;;;;;;20.90;8.35;;;;;;;0.81;77.83;100762.75;1682037;84;21295;-66
2020/12/11 05:03:00;;;;;;;19.87;8.53;;;;;;;0.81;77.75;100772.19;1682080;84;21240;-64
2020/12/11 05:05:27;;;;;;;16.82;7.00;;;;;;;0.78;77.76;100772.44;1682067;84;21108;-65
2020/12/11 05:07:54;;;;;;;20.65;8.53;;;;;;;0.76;77.72;100777.10;1681911;85;21404;-66
2020/12/11 05:10:22;;;;;;;22.07;8.78;;;;;;;0.77;77.66;100780.66;1681970;85;21176;-66
2020/12/11 05:12:49;;;;;;;16.45;8.25;;;;;;;0.77;77.67;100781.52;1681948;85;21390;-66
2020/12/11 05:15:18;;;;;;;19.45;8.23;;;;;;;0.77;77.68;100788.26;1686281;82;21094;-63
2020/12/11 05:17:45;;;;;;;20.65;8.48;;;;;;;0.77;77.70;100788.26;1722656;82;21771;-63
2020/12/11 05:20:13;;;;;;;20.50;8.05;;;;;;;0.78;77.65;100793.16;1722789;82;21804;-64
2020/12/11 05:22:41;;;;;;;20.52;9.03;;;;;;;0.75;77.47;100791.57;1722719;83;21351;-63
2020/12/11 05:25:15;;;;;;;21.17;8.83;;;;;;;0.72;77.42;100797.70;1722764;82;21467;-64
2020/12/11 05:27:44;;;;;;;21.15;8.10;;;;;;;0.71;77.44;100793.30;1722777;82;21683;-63
2020/12/11 05:30:19;;;;;;;28.67;13.35;;;;;;;0.70;77.45;100792.93;1722815;83;21307;-65
2020/12/11 05:32:58;;;;;;;38.58;16.37;;;;;;;0.68;77.32;100802.98;1722880;83;21184;-63
2020/12/11 05:35:30;;;;;;;56.80;21.95;;;;;;;0.64;77.26;100806.39;1722721;83;21361;-65
2020/12/11 05:38:05;;;;;;;29.98;11.65;;;;;;;0.61;77.17;100806.63;1722769;83;21804;-65
2020/12/11 05:40:37;;;;;;;23.67;9.75;;;;;;;0.60;77.03;100803.57;1722803;82;21363;-65
2020/12/11 05:43:21;;;;;;;21.50;8.55;;;;;;;0.56;76.84;100808.84;1722879;83;21073;-66
2020/12/11 05:45:57;;;;;;;22.02;9.18;;;;;;;0.53;76.79;100810.44;1722818;82;21810;-64
2020/12/11 05:48:35;;;;;;;23.57;8.10;;;;;;;0.51;76.70;100810.56;1722823;83;21358;-65
2020/12/11 05:51:14;;;;;;;19.73;8.23;;;;;;;0.50;76.65;100807.50;1722294;82;21418;-65
2020/12/11 05:53:43;;;;;;;23.15;8.88;;;;;;;0.49;76.62;100810.31;1722012;83;21957;-64
2020/12/11 05:56:10;;;;;;;27.37;9.83;;;;;;;0.47;76.60;100814.98;1722705;82;21288;-65
2020/12/11 05:58:38;;;;;;;22.98;7.83;;;;;;;0.42;76.48;100811.30;1722459;82;21085;-66
2020/12/11 06:01:05;;;;;;;22.32;9.23;;;;;;;0.39;76.41;100812.04;1673026;83;21389;-65
2020/12/11 06:03:34;;;;;;;20.35;8.23;;;;;;;0.35;76.23;100821.34;1696224;83;21316;-65
2020/12/11 06:06:02;;;;;;;23.18;8.70;;;;;;;0.31;76.26;100815.34;1722685;82;21200;-65
2020/12/11 06:08:29;;;;;;;25.45;8.05;;;;;;;0.31;76.05;100829.67;1673022;83;21354;-65
2020/12/11 06:10:56;;;;;;;22.85;8.45;;;;;;;0.30;76.04;100828.45;1722576;83;21860;-65
2020/12/11 06:13:38;;;;;;;21.62;8.33;;;;;;;0.30;75.91;100824.41;1673071;83;21951;-65
2020/12/11 06:16:06;;;;;;;20.70;7.97;;;;;;;0.27;75.81;100824.16;1722708;82;21085;-65
2020/12/11 06:18:35;;;;;;;22.02;8.45;;;;;;;0.25;75.60;100822.08;1722636;83;21100;-65
2020/12/11 06:21:02;;;;;;;23.70;6.92;;;;;;;0.24;75.59;100828.94;1696050;83;21288;-65
2020/12/11 06:23:31;;;;;;;29.30;9.90;;;;;;;0.21;75.56;100827.34;1695871;83;21280;-64
2020/12/11 06:26:03;;;;;;;22.32;7.35;;;;;;;0.21;75.64;100819.26;1722738;82;21603;-65
2020/12/11 06:28:44;;;;;;;22.75;8.83;;;;;;;0.22;75.64;100824.16;1715336;82;21099;-67
2020/12/11 06:31:14;;;;;;;25.37;9.95;;;;;;;0.18;75.53;100827.58;1707984;83;21087;-64
2020/12/11 06:33:48;;;;;;;20.55;8.95;;;;;;;0.17;75.59;100827.21;1708155;82;21814;-65
2020/12/11 06:36:16;;;;;;;26.48;10.13;;;;;;;0.15;75.71;100823.78;1708028;83;21366;-65
2020/12/11 06:38:56;;;;;;;23.77;8.63;;;;;;;0.14;75.60;100830.16;1708152;82;21249;-65
2020/12/11 06:41:35;;;;;;;22.05;9.65;;;;;;;0.10;75.60;100825.12;1708292;82;21477;-64
2020/12/11 06:44:16;;;;;;;24.35;9.75;;;;;;;0.08;75.51;100823.89;1708120;82;21082;-66
2020/12/11 06:47:05;;;;;;;23.10;9.25;;;;;;;0.08;75.53;100825.24;1708160;82;21189;-64
2020/12/11 06:49:35;;;;;;;26.90;10.10;;;;;;;0.07;75.50;100824.88;1688731;84;21323;-65
2020/12/11 06:52:08;;;;;;;34.55;18.42;;;;;;;0.05;75.51;100826.83;1708173;82;21450;-63
2020/12/11 06:54:41;;;;;;;25.85;10.23;;;;;;;0.04;75.46;100824.26;1708023;82;21090;-66
2020/12/11 06:57:08;;;;;;;23.00;9.03;;;;;;;0.05;75.23;100820.59;1706925;84;21153;-64
2020/12/11 06:59:41;;;;;;;25.88;10.15;;;;;;;0.04;75.18;100826.46;1708178;83;21102;-64
2020/12/11 07:02:18;;;;;;;25.23;9.65;;;;;;;0.03;75.07;100831.48;1709044;83;21886;-65
2020/12/11 07:04:48;;;;;;;26.57;10.85;;;;;;;0.01;74.91;100822.66;1708400;82;21333;-65
2020/12/11 07:07:15;;;;;;;36.73;16.60;;;;;;;0.00;74.80;100818.25;1708265;82;21420;-64
2020/12/11 07:09:46;;;;;;;36.13;14.40;;;;;;;-0.05;74.62;100819.06;1708127;83;21098;-64
2020/12/11 07:12:16;;;;;;;49.88;20.45;;;;;;;-0.11;74.59;100815.50;1708104;82;21058;-66
2020/12/11 07:14:47;;;;;;;27.85;11.55;;;;;;;-0.14;74.61;100815.74;1708194;84;21083;-67
2020/12/11 07:17:25;;;;;;;23.42;10.58;;;;;;;-0.13;74.63;100814.77;1708148;83;21094;-64
2020/12/11 07:19:54;;;;;;;23.83;8.23;;;;;;;-0.13;74.46;100806.69;1708093;84;21309;-65
2020/12/11 07:22:22;;;;;;;21.55;8.78;;;;;;;-0.13;74.33;100808.89;1708208;84;21201;-66
2020/12/11 07:24:49;;;;;;;46.08;16.00;;;;;;;-0.18;73.92;100808.39;1708172;82;21242;-65
2020/12/11 07:27:16;;;;;;;19.77;8.28;;;;;;;-0.22;73.87;100807.41;1708105;82;21927;-65
2020/12/11 07:29:51;;;;;;;26.85;11.28;;;;;;;-0.24;73.68;100808.86;1720556;82;21451;-65
2020/12/11 07:32:22;;;;;;;22.25;8.73;;;;;;;-0.29;73.65;100804.33;1722654;82;21802;-65
2020/12/11 07:34:50;;;;;;;25.82;9.33;;;;;;;-0.34;73.73;100803.33;1722697;82;21105;-64
2020/12/11 07:37:18;;;;;;;55.88;17.57;;;;;;;-0.36;73.62;100801.25;1722790;82;21104;-63
2020/12/11 07:39:46;;;;;;;38.28;14.33;;;;;;;-0.36;73.71;100807.13;1722782;83;21383;-66
2020/12/11 07:42:14;;;;;;;41.08;20.02;;;;;;;-0.38;73.74;100803.20;1722816;82;21415;-65
2020/12/11 07:44:41;;;;;;;245.05;76.57;;;;;;;-0.40;73.82;100802.95;1696137;83;21330;-65
2020/12/11 07:47:11;;;;;;;77.62;25.20;;;;;;;-0.40;74.22;100808.33;1722780;82;21500;-65
2020/12/11 07:49:42;;;;;;;34.27;14.23;;;;;;;-0.34;74.88;100810.06;1722713;82;21793;-64
2020/12/11 07:52:10;;;;;;;30.02;13.50;;;;;;;-0.28;75.54;100809.22;1722835;83;21088;-66
2020/12/11 07:54:41;;;;;;;33.30;13.60;;;;;;;-0.24;75.44;100816.09;1722891;82;21330;-65
2020/12/11 07:57:16;;;;;;;34.23;12.90;;;;;;;-0.21;75.29;100807.77;1722876;82;21485;-64
2020/12/11 07:59:59;;;;;;;32.25;12.07;;;;;;;-0.21;75.32;100802.39;1722733;83;21886;-64
2020/12/11 08:02:28;;;;;;;30.57;11.73;;;;;;;-0.20;74.98;100817.08;1722749;82;21763;-63
2020/12/11 08:04:55;;;;;;;28.23;12.90;;;;;;;-0.21;74.69;100811.81;1722604;83;21104;-62
2020/12/11 08:07:30;;;;;;;26.68;10.55;;;;;;;-0.25;74.43;100806.30;1722662;83;21934;-65
2020/12/11 08:10:11;;;;;;;35.58;13.95;;;;;;;-0.30;74.21;100805.79;1722613;82;21842;-66
2020/12/11 08:12:40;;;;;;;25.48;10.53;;;;;;;-0.32;74.16;100815.33;1722791;82;21231;-63
2020/12/11 08:15:07;;;;;;;33.92;12.45;;;;;;;-0.31;74.08;100806.28;1722803;83;21053;-63
2020/12/11 08:17:35;;;;;;;30.48;12.40;;;;;;;-0.34;73.83;100807.38;1722840;82;21322;-65
2020/12/11 08:20:05;;;;;;;22.27;10.15;;;;;;;-0.34;73.91;100805.17;1722681;82;21404;-65
2020/12/11 08:22:38;;;;;;;24.63;9.73;;;;;;;-0.33;73.97;100813.61;1722722;82;21793;-67
2020/12/11 08:25:21;;;;;;;27.15;11.30;;;;;;;-0.33;73.66;100806.89;1722662;82;21330;-64
2020/12/11 08:27:50;;;;;;;22.25;9.38;;;;;;;-0.38;73.40;100797.81;1724013;82;21281;-69
2020/12/11 08:30:19;;;;;;;28.47;11.20;;;;;;;-0.43;73.37;100805.88;1708929;82;21133;-65
2020/12/11 08:32:47;;;;;;;26.33;10.03;;;;;;;-0.41;73.41;100802.09;1708038;84;21332;-65
2020/12/11 08:35:17;;;;;;;29.82;12.20;;;;;;;-0.39;73.55;100795.24;1708213;84;21094;-65
2020/12/11 08:37:54;;;;;;;25.50;10.18;;;;;;;-0.38;73.61;100795.12;1705311;82;21099;-65
2020/12/11 08:40:25;;;;;;;22.67;10.50;;;;;;;-0.34;73.53;100795.75;1708062;82;21798;-63
2020/12/11 08:49:35;;;;;;;22.55;9.88;;;;;;;-0.36;73.07;100797.21;1708045;83;21368;-65
2020/12/11 08:51:25;;;;;;;27.58;11.65;;;;;;;-0.38;73.14;100791.09;1693550;84;21223;-65
2020/12/11 08:53:55;;;;;;;23.70;8.75;;;;;;;-0.33;73.17;100790.73;1708075;82;21838;-66
2020/12/11 08:56:24;;;;;;;20.45;8.68;;;;;;;-0.33;73.05;100788.90;1705660;84;21098;-66
2020/12/11 08:58:51;;;;;;;24.90;9.45;;;;;;;-0.34;72.77;100793.91;1708077;82;21313;-66
2020/12/11 09:01:19;;;;;;;25.92;9.70;;;;;;;-0.39;72.61;100789.37;1708434;82;21400;-65
2020/12/11 09:03:46;;;;;;;25.88;11.00;;;;;;;-0.36;72.70;100790.48;1708112;82;21264;-65
2020/12/11 09:06:14;;;;;;;22.90;9.70;;;;;;;-0.34;72.74;100796.60;1708151;82;21878;-66
2020/12/11 09:08:42;;;;;;;24.12;10.00;;;;;;;-0.27;72.71;100793.44;1707738;84;21123;-65
2020/12/11 09:11:09;;;;;;;22.70;9.13;;;;;;;-0.20;72.62;100786.59;1708158;82;21695;-64
2020/12/11 09:13:37;;;;;;;29.85;11.63;;;;;;;-0.17;72.33;100787.70;1707993;84;21297;-67
2020/12/11 09:16:04;;;;;;;21.97;9.93;;;;;;;-0.20;72.28;100789.29;1710345;82;21090;-63
2020/12/11 09:18:32;;;;;;;23.75;10.10;;;;;;;-0.20;72.26;100787.94;1703758;83;21644;-63
2020/12/11 09:20:59;;;;;;;27.55;9.65;;;;;;;-0.20;72.03;100781.22;1705612;83;21055;-63
2020/12/11 09:23:26;;;;;;;19.70;8.25;;;;;;;-0.22;72.02;100787.20;1706383;82;21091;-65
2020/12/11 09:25:57;;;;;;;19.23;8.68;;;;;;;-0.22;71.96;100783.16;1707978;82;21752;-69
2020/12/11 09:28:29;;;;;;;22.75;9.80;;;;;;;-0.21;72.27;100774.97;1706003;83;21115;-63
2020/12/11 09:31:00;;;;;;;19.15;8.98;;;;;;;-0.18;72.16;100778.77;1714061;82;21805;-64
2020/12/11 09:33:34;;;;;;;23.38;9.68;;;;;;;-0.22;72.01;100770.56;1730077;81;21800;-63
2020/12/11 09:35:59;;;;;;;27.05;9.85;;;;;;;-0.25;72.04;100771.29;1725719;81;21077;-64
2020/12/11 09:38:28;;;;;;;24.52;9.50;;;;;;;-0.27;72.09;100778.63;1687450;82;21077;-69
2020/12/11 09:41:02;;;;;;;28.83;10.80;;;;;;;-0.28;72.21;100771.04;1690755;82;21355;-65
2020/12/11 09:49:14;;;;;;;23.52;9.70;;;;;;;-0.25;71.96;100756.48;1689020;82;21100;-61
2020/12/11 09:51:52;;;;;;;16.62;8.30;;;;;;;-0.26;72.09;100744.00;1691147;82;21209;-65
2020/12/11 09:54:15;;;;;;;25.48;10.35;;;;;;;-0.25;72.16;100749.75;1702016;82;21869;-64
2020/12/11 09:56:39;;;;;;;21.45;9.93;;;;;;;-0.24;72.17;100745.59;1720183;82;21938;-65
2020/12/11 10:02:00;;;;;;;21.12;9.20;;;;;;;-0.18;72.07;100745.11;1709390;82;21082;-63
2020/12/11 10:04:23;;;;;;;27.20;11.33;;;;;;;-0.16;71.92;100749.89;1684821;84;21195;-62
2020/12/11 10:06:50;;;;;;;25.75;10.30;;;;;;;-0.14;72.07;100747.07;1687429;82;21280;-63
2020/12/11 10:09:18;;;;;;;27.58;11.85;;;;;;;-0.11;72.05;100742.79;1705945;82;21757;-65
2020/12/11 10:11:51;;;;;;;26.20;10.80;;;;;;;-0.11;71.93;100738.75;1694967;82;21317;-63
2020/12/11 10:14:30;;;;;;;29.07;11.65;;;;;;;-0.09;71.84;100731.41;1704820;82;21791;-64
2020/12/11 10:16:54;;;;;;;26.17;11.90;;;;;;;-0.07;71.76;100724.92;1705108;84;21706;-63
2020/12/11 10:19:22;;;;;;;27.50;13.03;;;;;;;-0.05;71.75;100723.45;1712072;82;21563;-63
2020/12/11 10:21:50;;;;;;;33.13;12.47;;;;;;;-0.04;71.72;100721.13;1718481;82;21230;-62
2020/12/11 10:24:18;;;;;;;31.10;12.05;;;;;;;-0.04;71.56;100719.78;1705945;82;21462;-62
2020/12/11 10:26:45;;;;;;;25.88;11.28;;;;;;;-0.07;71.36;100715.49;1710153;82;21326;-64
2020/12/11 10:29:13;;;;;;;25.37;11.38;;;;;;;-0.11;71.17;100717.20;1710193;82;21735;-63
2020/12/11 10:31:44;;;;;;;33.05;12.73;;;;;;;-0.13;71.28;100728.59;1715638;82;21404;-67
2020/12/11 10:34:14;;;;;;;26.97;11.45;;;;;;;-0.14;71.27;100718.80;1711950;82;21308;-67
2020/12/11 10:36:43;;;;;;;26.12;11.45;;;;;;;-0.11;71.24;100722.59;1710179;84;21306;-65
2020/12/11 10:39:10;;;;;;;31.07;11.75;;;;;;;-0.12;71.13;100717.70;1708737;83;21792;-65
2020/12/11 10:41:45;;;;;;;31.42;14.05;;;;;;;-0.12;71.14;100712.31;1708354;83;21068;-65
2020/12/11 10:44:17;;;;;;;45.45;14.15;;;;;;;-0.08;71.23;100722.34;1708178;83;21262;-66
2020/12/11 10:46:50;;;;;;;31.30;12.07;;;;;;;-0.07;71.29;100723.57;1708589;83;21083;-65
2020/12/11 10:49:18;;;;;;;26.62;10.80;;;;;;;-0.05;71.25;100719.41;1708879;83;21423;-64
2020/12/11 10:51:47;;;;;;;37.30;13.68;;;;;;;-0.06;71.22;100713.66;1708770;83;21286;-68
2020/12/11 10:54:14;;;;;;;30.23;11.35;;;;;;;-0.07;71.21;100710.59;1708808;84;21348;-67
2020/12/11 10:56:42;;;;;;;36.17;13.93;;;;;;;-0.04;71.29;100716.59;1708823;84;21294;-63
2020/12/11 10:59:09;;;;;;;34.75;13.80;;;;;;;-0.03;71.11;100704.84;1708889;83;21275;-65
2020/12/11 11:01:37;;;;;;;29.87;12.80;;;;;;;-0.04;71.20;100714.39;1700570;82;21296;-65
2020/12/11 11:04:07;;;;;;;32.05;12.70;;;;;;;-0.05;71.29;100701.91;1698140;82;21689;-64
2020/12/11 11:06:40;;;;;;;33.38;13.95;;;;;;;-0.03;71.53;100709.38;1704694;82;21304;-67
2020/12/11 11:11:39;;;;;;;28.10;12.15;;;;;;;0.01;71.41;100712.22;1709890;82;21802;-64
2020/12/11 11:14:36;;;;;;;25.40;10.72;;;;;;;-0.01;71.31;100719.53;1709401;82;21094;-63
2020/12/11 11:27:39;;;;;;;32.15;14.28;;;;;;;-0.15;71.14;100703.62;1708328;83;21854;-63
2020/12/11 11:30:02;;;;;;;30.35;13.62;;;;;;;-0.16;71.26;100708.63;1708033;83;21103;-61
2020/12/11 11:32:30;;;;;;;25.80;11.63;;;;;;;-0.18;71.23;100699.33;1701240;83;21821;-63
2020/12/11 11:34:57;;;;;;;31.35;13.93;;;;;;;-0.19;71.08;100703.49;1681221;84;21188;-64
2020/12/11 11:37:28;;;;;;;27.60;11.03;;;;;;;-0.21;70.90;100697.38;1680346;84;21073;-63
2020/12/11 11:39:55;;;;;;;35.23;13.35;;;;;;;-0.24;70.90;100697.61;1680242;84;21244;-64
2020/12/11 11:42:23;;;;;;;31.68;13.05;;;;;;;-0.29;70.76;100697.98;1680589;85;21229;-63
2020/12/11 11:44:58;;;;;;;28.07;11.90;;;;;;;-0.29;70.94;100687.70;1679949;84;21101;-62
2020/12/11 11:47:24;;;;;;;38.05;13.43;;;;;;;-0.27;71.07;100687.09;1680855;84;21208;-63
2020/12/11 11:52:34;;;;;;;52.80;17.05;;;;;;;-0.27;71.26;100681.70;1710022;82;21195;-65
2020/12/11 11:54:57;;;;;;;32.35;13.00;;;;;;;-0.24;71.35;100685.01;1706011;82;21275;-67
2020/12/11 11:57:26;;;;;;;37.38;15.25;;;;;;;-0.25;71.42;100684.64;1704977;82;21288;-64